Time;durP1;ratioP1;P1;durP2;ratioP2;P2;SDS_P1;SDS_P2;PMS_P1;PMS_P2;Temp;Humidity;BMP_temperature;BMP_pressure;BME280_temperature;BME280_humidity;BME280_pressure;Samples;Min_cycle;Max_cycle;Signal;HPM_P1;HPM_P2
2024/02/29 00:00:20;;;;;;;23.30;22.20;;;20.60;53.30;;;;;;4983189;28;20497;-64
2024/02/29 00:02:47;;;;;;;22.57;21.50;;;20.60;53.30;;;;;;4981191;28;20440;-64
2024/02/29 00:05:13;;;;;;;23.40;22.30;;;20.60;53.30;;;;;;4981222;28;20451;-65
2024/02/29 00:07:42;;;;;;;21.73;20.73;;;20.60;53.30;;;;;;4983889;28;20435;-64
2024/02/29 00:10:09;;;;;;;21.57;20.67;;;20.60;53.40;;;;;;4983754;28;20517;-65
2024/02/29 00:12:36;;;;;;;22.03;20.97;;;20.60;53.30;;;;;;4981506;28;20459;-63
2024/02/29 00:15:03;;;;;;;22.10;21.10;;;20.60;53.30;;;;;;4980956;28;20435;-64
2024/02/29 00:17:31;;;;;;;22.60;21.40;;;20.60;53.20;;;;;;4980489;28;20463;-63
2024/02/29 00:19:58;;;;;;;25.73;24.63;;;20.60;53.30;;;;;;4980590;28;20488;-63
2024/02/29 00:22:24;;;;;;;23.53;22.43;;;20.60;53.30;;;;;;4981591;28;20825;-65
2024/02/29 00:24:52;;;;;;;22.40;21.37;;;20.60;53.20;;;;;;4984274;28;20483;-64
2024/02/29 00:27:19;;;;;;;21.90;21.00;;;20.50;53.20;;;;;;4983346;28;20443;-64
2024/02/29 00:29:46;;;;;;;21.60;20.70;;;20.50;53.20;;;;;;4980544;28;20463;-64
2024/02/29 00:32:12;;;;;;;22.37;21.13;;;20.50;53.20;;;;;;4979934;28;20452;-64
2024/02/29 00:34:39;;;;;;;22.20;21.20;;;20.50;53.20;;;;;;4983573;28;20442;-64
2024/02/29 00:37:06;;;;;;;22.47;21.47;;;20.50;53.20;;;;;;4983590;28;20450;-64
2024/02/29 00:39:32;;;;;;;21.77;20.77;;;20.50;53.20;;;;;;4981693;28;20517;-62
2024/02/29 00:42:00;;;;;;;21.90;21.00;;;20.50;53.20;;;;;;4980392;28;20447;-64
2024/02/29 00:44:27;;;;;;;21.43;20.47;;;20.50;53.20;;;;;;4981930;28;20455;-64
2024/02/29 00:46:54;;;;;;;22.40;21.30;;;20.50;53.30;;;;;;4983615;28;20450;-65
2024/02/29 00:49:20;;;;;;;22.23;21.20;;;20.50;53.30;;;;;;4983383;28;20470;-64
2024/02/29 00:51:47;;;;;;;23.50;22.50;;;20.50;53.30;;;;;;4980352;28;20439;-65
2024/02/29 00:54:14;;;;;;;23.03;22.03;;;20.50;53.40;;;;;;4979679;28;20825;-65
2024/02/29 00:56:41;;;;;;;22.67;21.57;;;20.40;53.30;;;;;;4976263;28;20946;-65
2024/02/29 00:59:09;;;;;;;22.97;21.97;;;20.40;53.40;;;;;;4983818;28;20833;-64
2024/02/29 01:01:35;;;;;;;22.17;21.20;;;20.40;53.30;;;;;;4981186;28;20443;-64
2024/02/29 01:04:03;;;;;;;22.00;21.00;;;20.40;53.30;;;;;;4980206;28;20439;-65
2024/02/29 01:06:30;;;;;;;21.90;20.90;;;20.50;53.40;;;;;;4979944;28;20451;-65
2024/02/29 01:08:57;;;;;;;22.57;21.50;;;20.40;53.40;;;;;;4983823;28;20447;-66
2024/02/29 01:11:24;;;;;;;22.30;21.30;;;20.40;53.40;;;;;;5008551;23;21035;-63
2024/02/29 01:13:51;;;;;;;22.53;21.47;;;20.40;53.30;;;;;;4961055;28;20455;-63
2024/02/29 01:16:19;;;;;;;22.13;21.13;;;20.40;53.40;;;;;;4961152;28;20531;-63
2024/02/29 01:18:47;;;;;;;21.90;21.00;;;20.40;53.40;;;;;;4961203;28;20476;-63
2024/02/29 01:21:14;;;;;;;21.70;20.80;;;20.40;53.50;;;;;;4975675;28;20889;-63
2024/02/29 01:23:40;;;;;;;21.93;21.03;;;20.40;53.50;;;;;;4983073;28;20447;-63
2024/02/29 01:26:07;;;;;;;22.50;21.50;;;20.40;53.40;;;;;;4983745;28;20443;-63
2024/02/29 01:28:34;;;;;;;22.70;21.80;;;20.40;53.40;;;;;;4981498;28;20439;-64
2024/02/29 01:31:02;;;;;;;22.40;21.00;;;20.40;53.40;;;;;;4979418;28;20491;-63
2024/02/29 01:33:30;;;;;;;20.97;20.07;;;20.40;53.40;;;;;;4981266;28;20506;-63
2024/02/29 01:35:57;;;;;;;22.47;21.47;;;20.40;53.40;;;;;;4983685;28;20466;-63
2024/02/29 01:38:24;;;;;;;22.30;21.20;;;20.40;53.40;;;;;;4982696;28;20521;-63
2024/02/29 01:40:52;;;;;;;23.10;22.10;;;20.30;53.40;;;;;;4980654;28;20861;-63
2024/02/29 01:43:19;;;;;;;21.93;20.93;;;20.30;53.40;;;;;;4983665;28;20452;-63
2024/02/29 01:45:49;;;;;;;21.63;20.70;;;20.40;53.40;;;;;;4975524;28;20447;-63
2024/02/29 01:48:17;;;;;;;21.90;21.00;;;20.30;53.30;;;;;;4983572;28;20820;-63
2024/02/29 01:50:45;;;;;;;22.47;21.40;;;20.30;53.30;;;;;;4984864;28;20462;-63
2024/02/29 01:53:12;;;;;;;21.77;20.80;;;20.30;53.30;;;;;;4983499;28;20444;-63
2024/02/29 01:55:39;;;;;;;21.93;21.03;;;20.30;53.80;;;;;;4985876;28;20448;-63
2024/02/29 01:58:06;;;;;;;22.47;21.17;;;20.30;53.20;;;;;;4986871;28;20443;-63
2024/02/29 02:00:34;;;;;;;22.10;21.03;;;20.30;53.20;;;;;;4983988;28;20978;-63
2024/02/29 02:03:00;;;;;;;22.20;21.30;;;20.30;53.20;;;;;;4983311;28;20530;-63
2024/02/29 02:05:27;;;;;;;21.80;20.90;;;20.30;53.20;;;;;;4983930;28;20454;-63
2024/02/29 02:07:56;;;;;;;21.43;20.50;;;20.30;53.20;;;;;;4986673;28;20451;-63
2024/02/29 02:10:23;;;;;;;22.83;21.30;;;20.30;53.20;;;;;;4984742;28;20466;-63
2024/02/29 02:12:50;;;;;;;21.97;21.07;;;20.30;53.20;;;;;;4983623;28;20440;-63
2024/02/29 02:15:16;;;;;;;22.83;21.83;;;20.30;53.20;;;;;;4983377;28;20507;-63
2024/02/29 02:17:44;;;;;;;22.20;21.30;;;20.30;53.10;;;;;;4985819;28;20441;-62
2024/02/29 02:20:17;;;;;;;22.10;21.00;;;20.30;53.10;;;;;;4983855;28;20991;-64
2024/02/29 02:22:44;;;;;;;22.03;21.03;;;20.30;53.10;;;;;;4985833;28;20467;-63
2024/02/29 02:25:11;;;;;;;21.70;20.80;;;20.30;53.10;;;;;;4986468;28;20527;-63
2024/02/29 02:27:38;;;;;;;22.73;21.53;;;20.20;53.00;;;;;;4984075;28;20447;-63
2024/02/29 02:30:06;;;;;;;21.80;20.90;;;20.20;53.10;;;;;;4985678;28;20513;-63
2024/02/29 02:32:33;;;;;;;21.70;20.70;;;20.20;53.10;;;;;;4984537;28;20490;-63
2024/02/29 02:35:00;;;;;;;22.73;21.73;;;20.20;53.10;;;;;;4983015;28;20450;-63
2024/02/29 02:37:29;;;;;;;21.50;20.60;;;20.20;53.10;;;;;;4983389;28;20810;-63
2024/02/29 02:39:55;;;;;;;21.00;20.20;;;20.20;53.00;;;;;;4985796;28;20569;-63
2024/02/29 02:42:22;;;;;;;22.73;21.73;;;20.20;53.10;;;;;;4985839;28;20454;-63
2024/02/29 02:44:49;;;;;;;21.90;21.00;;;20.20;53.10;;;;;;4974847;28;20490;-62
2024/02/29 02:47:16;;;;;;;22.67;21.63;;;20.20;53.10;;;;;;4982811;28;20452;-62
2024/02/29 02:49:43;;;;;;;22.03;21.13;;;20.20;53.10;;;;;;4984754;28;20455;-63
2024/02/29 02:52:10;;;;;;;21.80;20.90;;;20.20;53.10;;;;;;4984478;28;20497;-60
2024/02/29 02:54:38;;;;;;;21.40;20.50;;;20.20;53.10;;;;;;4983996;28;20442;-62
2024/02/29 02:57:05;;;;;;;22.30;21.30;;;20.20;53.10;;;;;;4982482;28;20450;-62
2024/02/29 02:59:32;;;;;;;22.63;21.53;;;20.20;53.20;;;;;;4982930;28;20479;-63
2024/02/29 03:01:59;;;;;;;22.20;21.13;;;20.20;53.10;;;;;;4985388;28;20446;-62
2024/02/29 03:04:26;;;;;;;22.57;21.57;;;20.20;53.10;;;;;;4985293;28;20447;-63
2024/02/29 03:06:52;;;;;;;21.67;20.57;;;20.20;53.10;;;;;;4982371;28;20978;-63
2024/02/29 03:09:19;;;;;;;21.80;20.80;;;20.20;53.10;;;;;;4982830;28;20447;-63
2024/02/29 03:11:48;;;;;;;21.90;20.90;;;20.20;53.10;;;;;;4982010;28;20440;-63
2024/02/29 03:14:15;;;;;;;25.60;24.47;;;20.20;53.10;;;;;;4982070;28;20816;-63
2024/02/29 03:16:42;;;;;;;21.57;20.67;;;20.20;53.10;;;;;;4984265;28;20478;-62
2024/02/29 03:19:09;;;;;;;22.87;21.73;;;20.20;53.10;;;;;;4984942;28;20483;-62
2024/02/29 03:21:36;;;;;;;21.47;20.47;;;20.20;53.10;;;;;;4983258;28;20458;-62
2024/02/29 03:24:02;;;;;;;21.40;20.50;;;20.10;53.10;;;;;;4981961;28;20806;-60
2024/02/29 03:26:29;;;;;;;22.30;21.30;;;20.10;53.10;;;;;;4982405;28;20448;-62
2024/02/29 03:28:57;;;;;;;21.40;20.50;;;20.20;53.10;;;;;;4984836;28;20513;-63
2024/02/29 03:31:24;;;;;;;21.33;20.43;;;20.10;53.00;;;;;;4984869;28;20549;-63
2024/02/29 03:33:51;;;;;;;21.50;20.60;;;20.10;53.00;;;;;;4985138;28;21020;-63
2024/02/29 03:36:18;;;;;;;22.00;21.10;;;20.10;53.00;;;;;;4985286;28;20948;-63
2024/02/29 03:38:45;;;;;;;21.27;20.27;;;20.10;53.00;;;;;;4979034;28;20451;-63
2024/02/29 03:41:12;;;;;;;22.00;21.00;;;20.10;53.00;;;;;;4984477;28;21033;-64
2024/02/29 03:43:39;;;;;;;22.00;21.10;;;20.20;53.10;;;;;;4983313;28;20534;-63
2024/02/29 03:46:09;;;;;;;21.50;20.60;;;20.10;53.00;;;;;;4981673;28;20451;-64
2024/02/29 03:48:36;;;;;;;22.00;21.00;;;20.10;53.00;;;;;;4982346;28;20454;-63
2024/02/29 03:51:03;;;;;;;21.83;20.93;;;20.10;53.10;;;;;;4984474;28;20455;-64
2024/02/29 03:53:30;;;;;;;21.20;20.30;;;20.10;53.00;;;;;;4984238;28;20447;-63
2024/02/29 03:55:56;;;;;;;23.67;22.67;;;20.10;53.00;;;;;;4981455;28;20436;-63
2024/02/29 03:58:23;;;;;;;21.60;20.60;;;20.10;53.00;;;;;;4981084;28;20459;-64
2024/02/29 04:00:50;;;;;;;21.90;20.90;;;20.10;53.20;;;;;;4983826;28;21007;-63
2024/02/29 04:03:18;;;;;;;22.23;21.23;;;20.10;53.00;;;;;;4984520;28;20905;-63
2024/02/29 04:05:44;;;;;;;22.37;21.37;;;20.10;52.90;;;;;;4982207;28;20451;-63
2024/02/29 04:08:12;;;;;;;22.13;21.23;;;20.10;52.90;;;;;;4980990;28;20455;-64
2024/02/29 04:10:39;;;;;;;22.03;21.00;;;20.10;52.90;;;;;;4982286;28;20476;-63
2024/02/29 04:13:06;;;;;;;22.27;21.27;;;20.10;52.90;;;;;;4984536;28;20439;-64
2024/02/29 04:15:33;;;;;;;21.53;20.63;;;20.10;53.00;;;;;;4983791;28;20453;-62
2024/02/29 04:18:00;;;;;;;23.07;22.07;;;20.10;53.00;;;;;;4980771;28;20440;-64
2024/02/29 04:20:28;;;;;;;22.50;21.50;;;20.10;53.00;;;;;;4980448;28;20495;-64
2024/02/29 04:22:55;;;;;;;22.90;21.90;;;20.10;53.00;;;;;;4973154;28;20821;-63
2024/02/29 04:25:22;;;;;;;22.37;21.37;;;20.10;53.00;;;;;;4981044;28;20454;-63
2024/02/29 04:27:49;;;;;;;22.90;21.90;;;20.00;52.90;;;;;;4986922;28;20448;-64
2024/02/29 04:30:17;;;;;;;21.60;20.70;;;20.10;53.00;;;;;;4980598;28;20936;-64
2024/02/29 04:32:44;;;;;;;21.30;20.43;;;20.00;52.90;;;;;;4982926;28;20448;-64
2024/02/29 04:35:11;;;;;;;22.40;21.50;;;20.00;52.90;;;;;;4979256;28;20450;-64
2024/02/29 04:37:40;;;;;;;21.93;21.00;;;20.00;52.90;;;;;;4981993;28;21113;-63
2024/02/29 04:40:10;;;;;;;23.30;22.30;;;20.00;52.90;;;;;;4984083;28;20482;-63
2024/02/29 04:42:36;;;;;;;23.17;22.17;;;20.00;52.90;;;;;;4983001;28;20458;-64
2024/02/29 04:45:04;;;;;;;22.13;21.20;;;20.00;52.80;;;;;;4980359;28;20444;-63
2024/02/29 04:47:31;;;;;;;22.20;21.20;;;20.00;52.80;;;;;;4980725;28;20444;-62
2024/02/29 04:49:58;;;;;;;22.90;21.90;;;20.00;52.90;;;;;;4983926;28;20451;-64
2024/02/29 04:52:25;;;;;;;22.47;21.47;;;20.00;52.80;;;;;;4983547;28;20450;-63
2024/02/29 04:54:53;;;;;;;21.70;20.80;;;20.00;52.80;;;;;;4980483;28;20444;-64
2024/02/29 04:57:20;;;;;;;22.13;21.13;;;20.00;52.70;;;;;;4980853;28;20811;-64
2024/02/29 04:59:47;;;;;;;22.10;21.20;;;20.00;52.70;;;;;;4982691;28;20488;-62
2024/02/29 05:02:13;;;;;;;22.87;21.70;;;20.00;52.70;;;;;;4983499;28;20443;-63
2024/02/29 05:04:40;;;;;;;22.57;21.67;;;20.00;52.80;;;;;;4982436;28;20928;-63
2024/02/29 05:07:07;;;;;;;23.87;22.87;;;20.00;52.80;;;;;;4980225;28;20522;-63
2024/02/29 05:09:34;;;;;;;22.93;21.93;;;20.00;52.70;;;;;;4980809;28;20528;-64
2024/02/29 05:12:02;;;;;;;22.93;21.93;;;20.00;52.70;;;;;;4983457;28;20442;-63
2024/02/29 05:14:30;;;;;;;22.73;21.73;;;20.00;52.60;;;;;;4983793;28;20443;-64
2024/02/29 05:16:56;;;;;;;23.10;22.10;;;20.00;52.70;;;;;;4980808;28;20486;-63
2024/02/29 05:19:23;;;;;;;23.80;22.70;;;20.00;52.70;;;;;;4984146;28;20470;-63
2024/02/29 05:21:51;;;;;;;23.03;22.03;;;20.00;52.80;;;;;;4989890;28;20439;-63
2024/02/29 05:24:18;;;;;;;23.40;22.40;;;20.00;52.70;;;;;;4984048;28;20547;-64
2024/02/29 05:26:45;;;;;;;23.27;22.20;;;20.00;52.60;;;;;;4986461;28;20449;-63
2024/02/29 05:29:13;;;;;;;23.43;22.43;;;20.00;52.70;;;;;;4983883;28;20444;-63
2024/02/29 05:31:40;;;;;;;23.60;22.60;;;20.00;52.80;;;;;;4984709;28;20467;-63
2024/02/29 05:34:07;;;;;;;23.50;22.40;;;20.00;52.90;;;;;;4987497;28;20927;-63
2024/02/29 05:36:34;;;;;;;23.60;22.60;;;20.00;52.90;;;;;;4986275;28;20442;-63
2024/02/29 05:39:01;;;;;;;23.20;22.10;;;20.00;53.00;;;;;;4983798;28;20447;-63
2024/02/29 05:41:28;;;;;;;22.83;21.77;;;20.00;53.10;;;;;;4983223;28;20495;-64
2024/02/29 05:43:54;;;;;;;22.87;21.87;;;20.00;53.10;;;;;;4986654;28;20446;-63
2024/02/29 05:46:22;;;;;;;23.67;22.67;;;20.00;53.00;;;;;;4986699;28;20443;-63
2024/02/29 05:48:50;;;;;;;23.20;22.10;;;20.00;53.00;;;;;;4984619;28;20886;-63
2024/02/29 05:51:16;;;;;;;23.37;22.33;;;20.00;52.90;;;;;;4983213;28;20459;-63
2024/02/29 05:53:43;;;;;;;22.63;21.63;;;20.00;52.90;;;;;;4985040;28;20444;-63
2024/02/29 05:56:10;;;;;;;23.30;22.20;;;20.00;52.90;;;;;;4986405;28;20466;-63
2024/02/29 05:58:37;;;;;;;22.83;21.83;;;20.00;52.80;;;;;;4985960;28;20458;-63
2024/02/29 06:01:04;;;;;;;23.90;22.70;;;20.00;52.70;;;;;;4983052;28;20849;-63
2024/02/29 06:03:32;;;;;;;24.70;23.70;;;20.00;52.70;;;;;;4983281;28;20455;-63
2024/02/29 06:06:00;;;;;;;24.10;22.90;;;19.90;52.70;;;;;;4966702;28;20443;-63
2024/02/29 06:08:27;;;;;;;25.30;23.73;;;19.90;53.50;;;;;;4985102;28;20450;-63
2024/02/29 06:10:53;;;;;;;24.67;23.13;;;20.00;55.20;;;;;;4983169;28;20460;-63
2024/02/29 06:13:20;;;;;;;25.20;23.90;;;20.00;57.20;;;;;;4983207;28;20444;-64
2024/02/29 06:15:47;;;;;;;24.97;23.37;;;20.00;59.80;;;;;;4984467;28;20447;-63
2024/02/29 06:18:14;;;;;;;25.43;23.83;;;20.00;61.40;;;;;;4986020;28;20459;-64
2024/02/29 06:20:42;;;;;;;27.80;25.57;;;20.00;61.40;;;;;;4982739;28;20482;-64
2024/02/29 06:23:09;;;;;;;26.20;24.23;;;20.00;60.90;;;;;;4978915;28;20448;-64
2024/02/29 06:25:36;;;;;;;25.87;23.77;;;20.00;60.90;;;;;;4981500;28;20930;-64
2024/02/29 06:28:03;;;;;;;26.80;24.13;;;20.10;60.90;;;;;;4986081;28;20817;-64
2024/02/29 06:30:32;;;;;;;25.83;24.27;;;20.00;60.50;;;;;;4985755;28;20566;-64
2024/02/29 06:32:59;;;;;;;25.23;23.43;;;20.10;60.20;;;;;;4982523;28;20526;-64
2024/02/29 06:35:26;;;;;;;26.93;25.00;;;20.00;60.50;;;;;;4982582;28;20451;-65
2024/02/29 06:37:54;;;;;;;24.87;23.37;;;20.00;59.60;;;;;;4985033;28;20448;-64
2024/02/29 06:40:21;;;;;;;25.73;24.00;;;20.00;59.30;;;;;;4985294;28;20808;-64
2024/02/29 06:42:48;;;;;;;24.07;22.43;;;20.00;59.10;;;;;;4983955;28;20948;-64
2024/02/29 06:45:16;;;;;;;25.63;23.80;;;20.00;58.80;;;;;;4982504;28;20447;-65
2024/02/29 06:47:43;;;;;;;26.00;24.20;;;20.10;58.60;;;;;;4983393;28;20452;-64
2024/02/29 06:50:11;;;;;;;25.03;23.40;;;20.10;58.40;;;;;;4985698;28;20553;-64
2024/02/29 06:52:39;;;;;;;25.83;24.33;;;20.10;58.20;;;;;;4985484;28;21003;-64
2024/02/29 06:55:08;;;;;;;24.50;23.30;;;20.00;57.80;;;;;;4982891;28;20444;-64
2024/02/29 06:57:35;;;;;;;25.00;23.47;;;20.10;57.70;;;;;;4983180;28;20463;-64
2024/02/29 07:00:05;;;;;;;25.07;23.50;;;20.10;57.50;;;;;;4974918;28;20495;-64
2024/02/29 07:02:32;;;;;;;28.63;26.50;;;20.10;57.30;;;;;;4982456;28;20452;-64
2024/02/29 07:04:58;;;;;;;26.23;24.63;;;20.10;57.10;;;;;;4985546;28;20443;-64
2024/02/29 07:07:25;;;;;;;26.67;25.20;;;20.10;57.00;;;;;;4985826;28;20454;-64
2024/02/29 07:09:53;;;;;;;26.37;25.17;;;20.10;56.80;;;;;;5007436;23;20498;-64
2024/02/29 07:12:21;;;;;;;26.50;24.43;;;20.10;56.60;;;;;;4967844;28;20448;-63
2024/02/29 07:14:48;;;;;;;26.03;24.70;;;20.10;56.40;;;;;;4964225;28;20853;-64
2024/02/29 07:17:14;;;;;;;27.00;25.10;;;20.10;56.30;;;;;;4965933;28;20471;-64
2024/02/29 07:19:41;;;;;;;25.67;24.17;;;20.10;56.20;;;;;;4965880;28;20524;-64
2024/02/29 07:22:08;;;;;;;25.77;24.40;;;20.10;56.00;;;;;;4981607;28;20483;-63
2024/02/29 07:24:34;;;;;;;26.23;24.60;;;20.10;55.90;;;;;;4981784;28;20443;-63
2024/02/29 07:27:01;;;;;;;25.30;23.87;;;20.10;55.70;;;;;;4984963;28;20967;-65
2024/02/29 07:29:29;;;;;;;25.87;24.50;;;20.10;55.60;;;;;;4985066;28;20508;-64
2024/02/29 07:31:56;;;;;;;24.50;23.40;;;20.10;55.50;;;;;;4982249;28;20463;-64
2024/02/29 07:34:23;;;;;;;25.63;24.10;;;20.10;55.40;;;;;;4981961;28;20444;-65
2024/02/29 07:36:50;;;;;;;25.53;24.13;;;20.10;55.30;;;;;;4983711;28;20463;-66
2024/02/29 07:39:16;;;;;;;24.57;23.47;;;20.10;55.20;;;;;;4984783;28;20440;-65
2024/02/29 07:41:43;;;;;;;26.10;24.63;;;20.20;55.20;;;;;;4984112;28;20482;-65
2024/02/29 07:44:10;;;;;;;26.83;25.43;;;20.10;55.00;;;;;;4982273;28;20845;-65
2024/02/29 07:46:38;;;;;;;26.10;24.27;;;20.10;54.90;;;;;;4982176;28;20448;-65
2024/02/29 07:49:04;;;;;;;24.70;23.50;;;20.10;54.90;;;;;;4974126;28;20440;-65
2024/02/29 07:51:31;;;;;;;25.27;23.97;;;20.20;54.80;;;;;;4981474;28;20468;-65
2024/02/29 07:53:58;;;;;;;25.00;23.70;;;20.10;54.70;;;;;;4984136;28;20454;-65
2024/02/29 07:56:24;;;;;;;29.07;27.43;;;20.20;54.70;;;;;;4984641;28;20820;-64
2024/02/29 07:58:51;;;;;;;24.80;23.33;;;20.10;54.50;;;;;;4982787;28;20457;-66
2024/02/29 08:01:18;;;;;;;25.90;24.60;;;20.10;54.30;;;;;;4981140;28;20486;-65
2024/02/29 08:03:47;;;;;;;24.70;23.50;;;20.20;54.30;;;;;;4982179;28;20476;-65
2024/02/29 08:06:13;;;;;;;25.33;24.00;;;20.10;54.20;;;;;;4984630;28;20439;-62
2024/02/29 08:08:40;;;;;;;25.47;24.17;;;20.10;54.20;;;;;;4984060;28;20443;-63
2024/02/29 08:11:08;;;;;;;26.23;24.93;;;20.10;54.10;;;;;;4980535;28;20463;-62
2024/02/29 08:13:34;;;;;;;26.03;24.60;;;20.10;54.10;;;;;;4973084;28;20925;-62
2024/02/29 08:16:02;;;;;;;24.90;23.70;;;20.10;54.10;;;;;;4983795;28;20439;-62
2024/02/29 08:18:28;;;;;;;25.90;23.90;;;20.20;54.70;;;;;;4985762;28;20478;-61
2024/02/29 08:20:56;;;;;;;24.60;23.50;;;20.10;54.00;;;;;;4974507;28;20483;-62
2024/02/29 08:23:23;;;;;;;24.93;23.83;;;20.10;54.00;;;;;;4984064;28;20852;-60
2024/02/29 08:25:50;;;;;;;27.13;25.93;;;20.10;53.90;;;;;;4976109;28;20471;-63
2024/02/29 08:28:16;;;;;;;25.03;23.73;;;20.10;53.90;;;;;;4984111;28;20450;-61
2024/02/29 08:30:43;;;;;;;23.60;22.60;;;20.20;53.90;;;;;;4983083;28;20467;-63
2024/02/29 08:33:10;;;;;;;23.93;22.83;;;20.10;53.80;;;;;;4980560;28;20515;-62
2024/02/29 08:35:37;;;;;;;25.37;24.17;;;20.10;53.70;;;;;;4980673;28;20945;-62
2024/02/29 08:38:06;;;;;;;24.47;23.37;;;20.20;53.70;;;;;;4980570;28;20440;-63
2024/02/29 08:40:33;;;;;;;24.00;23.00;;;20.20;53.70;;;;;;4987237;28;21023;-62
2024/02/29 08:42:59;;;;;;;24.93;23.73;;;20.20;53.60;;;;;;4983931;28;20454;-63
2024/02/29 08:45:26;;;;;;;24.03;23.03;;;20.20;53.60;;;;;;4983988;28;20447;-63
2024/02/29 08:47:53;;;;;;;25.20;24.00;;;20.20;53.60;;;;;;4983808;28;20502;-63
2024/02/29 08:50:20;;;;;;;26.30;25.20;;;20.20;53.50;;;;;;4984076;28;20467;-63
2024/02/29 08:52:46;;;;;;;25.07;23.97;;;20.20;53.50;;;;;;4987012;28;20439;-62
2024/02/29 08:55:15;;;;;;;25.47;24.07;;;20.10;53.40;;;;;;4984751;28;20499;-62
2024/02/29 08:57:41;;;;;;;24.27;23.13;;;20.20;53.40;;;;;;4984425;28;20460;-62
2024/02/29 09:00:09;;;;;;;24.00;22.73;;;20.20;53.30;;;;;;4984254;28;20463;-62
2024/02/29 09:02:36;;;;;;;23.40;22.40;;;20.20;53.30;;;;;;4983922;28;20483;-63
2024/02/29 09:05:03;;;;;;;25.37;24.27;;;20.20;53.20;;;;;;4992328;28;20479;-63
2024/02/29 09:07:29;;;;;;;24.73;23.50;;;20.20;53.20;;;;;;4984326;28;20443;-62
2024/02/29 09:09:56;;;;;;;25.70;24.60;;;20.20;53.20;;;;;;4985854;28;20467;-62
2024/02/29 09:12:24;;;;;;;25.63;24.50;;;20.20;53.10;;;;;;4981939;28;20461;-63
2024/02/29 09:14:51;;;;;;;26.20;25.10;;;20.20;53.10;;;;;;4985311;28;20448;-63
2024/02/29 09:17:18;;;;;;;25.30;24.20;;;20.20;53.10;;;;;;4987378;28;20451;-62
2024/02/29 09:19:45;;;;;;;24.13;23.00;;;20.20;53.00;;;;;;4994979;28;20450;-61
2024/02/29 09:22:12;;;;;;;23.37;22.30;;;20.20;53.10;;;;;;4983661;28;20475;-62
2024/02/29 09:24:38;;;;;;;24.40;23.30;;;20.20;53.00;;;;;;4984122;28;20453;-63
2024/02/29 09:27:05;;;;;;;25.53;24.40;;;20.20;53.00;;;;;;4984134;28;20448;-62
2024/02/29 09:29:33;;;;;;;26.70;25.50;;;20.20;53.00;;;;;;4983846;28;20798;-63
2024/02/29 09:32:00;;;;;;;23.50;22.57;;;20.20;52.90;;;;;;4985892;28;20450;-63
2024/02/29 09:34:28;;;;;;;24.67;23.67;;;20.20;52.90;;;;;;4987250;28;20471;-63
2024/02/29 09:36:54;;;;;;;24.90;23.90;;;20.20;52.90;;;;;;4985482;28;20530;-63
2024/02/29 09:39:21;;;;;;;26.17;25.07;;;20.20;52.80;;;;;;4983797;28;20455;-63
2024/02/29 09:41:48;;;;;;;25.60;24.40;;;20.20;52.70;;;;;;4983755;28;20491;-63
2024/02/29 09:44:16;;;;;;;24.73;23.73;;;20.20;52.70;;;;;;4986969;28;20798;-63
2024/02/29 09:46:46;;;;;;;24.90;23.70;;;20.20;52.70;;;;;;4987070;28;20448;-63
2024/02/29 09:49:13;;;;;;;26.10;25.00;;;20.20;52.70;;;;;;4983478;28;20527;-63
2024/02/29 09:51:41;;;;;;;25.77;24.57;;;20.20;52.70;;;;;;4983202;28;20471;-63
2024/02/29 09:54:09;;;;;;;26.07;24.97;;;20.20;52.80;;;;;;4986590;28;20820;-63
2024/02/29 09:56:36;;;;;;;25.47;24.47;;;20.20;52.70;;;;;;4986739;28;20443;-61
2024/02/29 09:59:04;;;;;;;25.93;24.83;;;20.20;52.80;;;;;;4984079;28;20450;-63
2024/02/29 10:01:30;;;;;;;26.37;25.27;;;20.20;52.80;;;;;;4982223;28;20488;-63
2024/02/29 10:04:01;;;;;;;25.10;23.93;;;20.20;52.80;;;;;;4983211;28;20451;-63
2024/02/29 10:06:28;;;;;;;24.30;23.20;;;20.20;52.80;;;;;;4983233;28;20531;-63
2024/02/29 10:08:54;;;;;;;25.50;24.40;;;20.20;52.80;;;;;;4984412;28;20448;-62
2024/02/29 10:11:21;;;;;;;23.90;22.90;;;20.20;52.70;;;;;;4985930;28;20463;-63
2024/02/29 10:13:48;;;;;;;25.17;23.97;;;20.20;53.30;;;;;;4978275;28;20506;-63
2024/02/29 10:16:15;;;;;;;25.00;24.00;;;20.20;52.70;;;;;;4986438;28;20443;-63
2024/02/29 10:18:41;;;;;;;23.70;22.77;;;20.20;52.60;;;;;;4986374;28;20450;-63
2024/02/29 10:21:11;;;;;;;23.77;22.77;;;20.20;52.60;;;;;;4982704;28;20546;-63
2024/02/29 10:23:37;;;;;;;25.57;24.47;;;20.20;52.60;;;;;;4982931;28;20448;-63
2024/02/29 10:26:05;;;;;;;24.30;23.30;;;20.20;52.60;;;;;;4985409;28;20860;-63
2024/02/29 10:28:32;;;;;;;24.60;23.60;;;20.20;52.50;;;;;;4986135;28;20925;-63
2024/02/29 10:31:00;;;;;;;24.03;23.03;;;20.30;52.60;;;;;;4983868;28;20463;-61
2024/02/29 10:33:27;;;;;;;23.60;22.63;;;20.20;52.50;;;;;;4982707;28;20513;-62
2024/02/29 10:35:54;;;;;;;24.47;23.37;;;20.20;52.40;;;;;;4982732;28;20810;-63
2024/02/29 10:38:22;;;;;;;24.70;23.70;;;20.20;52.40;;;;;;4982661;28;20467;-61
2024/02/29 10:40:50;;;;;;;24.77;23.77;;;20.30;52.50;;;;;;4982506;28;21072;-63
2024/02/29 10:43:19;;;;;;;24.33;23.33;;;20.20;52.30;;;;;;4985815;28;20498;-61
2024/02/29 10:45:47;;;;;;;23.53;22.63;;;20.20;52.30;;;;;;4985761;28;20451;-62
2024/02/29 10:48:17;;;;;;;24.43;23.43;;;20.20;52.30;;;;;;4962348;28;20810;-63
2024/02/29 10:50:52;;;;;;;23.70;22.70;;;20.30;52.30;;;;;;4985322;28;20466;-62
2024/02/29 10:53:31;;;;;;;24.63;23.63;;;20.20;52.30;;;;;;4975480;28;20443;-62
2024/02/29 10:56:07;;;;;;;24.60;23.60;;;20.30;52.30;;;;;;4982328;28;20447;-63
2024/02/29 10:58:39;;;;;;;24.60;23.60;;;20.20;52.20;;;;;;4988616;28;21014;-63
2024/02/29 11:01:06;;;;;;;24.30;23.30;;;20.30;52.30;;;;;;4993453;28;20477;-62
2024/02/29 11:03:34;;;;;;;24.60;23.60;;;20.30;52.30;;;;;;4993741;28;20562;-61
2024/02/29 11:06:02;;;;;;;24.63;23.63;;;20.20;52.20;;;;;;4993766;28;20534;-60
2024/02/29 11:08:31;;;;;;;24.60;23.60;;;20.30;52.20;;;;;;4993621;28;20484;-62
2024/02/29 11:10:58;;;;;;;23.73;22.83;;;20.20;52.10;;;;;;4993239;28;20661;-62
2024/02/29 11:13:27;;;;;;;24.57;23.53;;;20.20;52.20;;;;;;4992700;28;20534;-62
2024/02/29 11:15:56;;;;;;;24.87;23.87;;;20.20;52.10;;;;;;4993504;28;20439;-62
2024/02/29 11:18:24;;;;;;;23.23;22.33;;;20.20;52.10;;;;;;4993535;28;20447;-62
2024/02/29 11:21:02;;;;;;;24.63;23.53;;;20.20;52.10;;;;;;4993146;28;20466;-62
2024/02/29 11:23:33;;;;;;;25.17;24.07;;;20.20;52.60;;;;;;4993304;28;21061;-62
2024/02/29 11:26:01;;;;;;;24.03;23.00;;;20.20;52.10;;;;;;4993299;28;20816;-62
2024/02/29 11:28:32;;;;;;;24.10;23.10;;;20.20;52.10;;;;;;4993270;28;20443;-62
2024/02/29 11:31:11;;;;;;;24.17;23.27;;;20.20;52.00;;;;;;4992892;28;20493;-62
2024/02/29 11:33:37;;;;;;;24.27;23.30;;;20.20;52.00;;;;;;4993313;28;20430;-63
2024/02/29 11:36:05;;;;;;;22.80;22.00;;;20.20;52.00;;;;;;4993135;28;20450;-61
2024/02/29 11:38:34;;;;;;;23.73;22.73;;;20.30;52.10;;;;;;4993091;28;20451;-62
2024/02/29 11:41:01;;;;;;;24.10;23.20;;;20.20;52.00;;;;;;4992827;28;20951;-62
2024/02/29 11:43:28;;;;;;;23.33;22.43;;;20.30;52.10;;;;;;4992844;28;20490;-62
2024/02/29 11:45:55;;;;;;;24.50;23.50;;;20.30;52.20;;;;;;4992933;28;20438;-62
2024/02/29 11:48:21;;;;;;;23.57;22.60;;;20.30;52.20;;;;;;4993068;28;20450;-62
2024/02/29 11:50:50;;;;;;;23.60;22.70;;;20.30;52.20;;;;;;4992623;28;20477;-61
2024/02/29 11:53:17;;;;;;;23.63;22.73;;;20.30;52.20;;;;;;4992890;28;20447;-63
2024/02/29 11:55:45;;;;;;;24.40;23.40;;;20.30;52.20;;;;;;4992744;28;20447;-61
2024/02/29 11:58:12;;;;;;;23.40;22.47;;;20.30;52.20;;;;;;4992709;28;20967;-62
2024/02/29 12:00:38;;;;;;;23.03;22.13;;;20.30;52.20;;;;;;4992284;28;20462;-62
2024/02/29 12:03:05;;;;;;;23.17;22.23;;;20.30;52.20;;;;;;4992546;28;20489;-62
2024/02/29 12:05:34;;;;;;;22.93;21.93;;;20.30;52.10;;;;;;4992649;28;20458;-62
2024/02/29 12:08:01;;;;;;;24.70;23.70;;;20.30;52.10;;;;;;4992610;28;20447;-63
2024/02/29 12:10:28;;;;;;;23.60;22.60;;;20.30;52.10;;;;;;4991965;28;20479;-63
2024/02/29 12:12:56;;;;;;;23.50;22.50;;;20.30;52.10;;;;;;4992342;28;20947;-62
2024/02/29 12:15:23;;;;;;;23.37;22.40;;;20.30;52.10;;;;;;4992474;28;20443;-62
2024/02/29 12:17:50;;;;;;;23.30;22.40;;;20.30;52.10;;;;;;4992328;28;20825;-62
2024/02/29 12:20:17;;;;;;;23.33;22.43;;;20.30;52.00;;;;;;4992031;28;20478;-63
2024/02/29 12:22:46;;;;;;;23.43;22.47;;;20.30;52.00;;;;;;4992274;28;20519;-62
2024/02/29 12:25:13;;;;;;;23.50;22.50;;;20.30;52.00;;;;;;4992176;28;20450;-62
2024/02/29 12:27:40;;;;;;;23.80;22.90;;;20.30;51.90;;;;;;4992328;28;20450;-61